sensor_id;sensor_type;location;lat;lon;timestamp;P1;durP1;ratioP1;P2;durP2;ratioP2
67861;SDS011;54665;51.462;6.698;2023-02-25T00:01:17;17.35;;;2.60;;
67861;SDS011;54665;51.462;6.698;2023-02-25T00:03:43;12.15;;;1.80;;
67861;SDS011;54665;51.462;6.698;2023-02-25T00:06:09;12.83;;;1.77;;
67861;SDS011;54665;51.462;6.698;2023-02-25T00:08:41;11.57;;;1.95;;
67861;SDS011;54665;51.462;6.698;2023-02-25T00:11:10;7.53;;;1.87;;
67861;SDS011;54665;51.462;6.698;2023-02-25T00:13:38;10.68;;;2.70;;
67861;SDS011;54665;51.462;6.698;2023-02-25T00:16:05;11.70;;;2.42;;
67861;SDS011;54665;51.462;6.698;2023-02-25T00:18:31;14.27;;;2.85;;
67861;SDS011;54665;51.462;6.698;2023-02-25T00:20:57;10.95;;;2.20;;
67861;SDS011;54665;51.462;6.698;2023-02-25T00:23:23;8.43;;;2.03;;
67861;SDS011;54665;51.462;6.698;2023-02-25T00:25:49;15.05;;;2.58;;
67861;SDS011;54665;51.462;6.698;2023-02-25T00:28:14;14.97;;;3.20;;
67861;SDS011;54665;51.462;6.698;2023-02-25T00:30:40;16.53;;;2.50;;
67861;SDS011;54665;51.462;6.698;2023-02-25T00:33:10;14.63;;;3.22;;
67861;SDS011;54665;51.462;6.698;2023-02-25T00:35:38;10.27;;;2.40;;
67861;SDS011;54665;51.462;6.698;2023-02-25T00:38:05;8.20;;;2.20;;
67861;SDS011;54665;51.462;6.698;2023-02-25T00:40:32;11.32;;;2.38;;
67861;SDS011;54665;51.462;6.698;2023-02-25T00:42:58;13.65;;;2.83;;
67861;SDS011;54665;51.462;6.698;2023-02-25T00:45:23;6.80;;;1.27;;
67861;SDS011;54665;51.462;6.698;2023-02-25T00:47:49;10.53;;;1.53;;
67861;SDS011;54665;51.462;6.698;2023-02-25T00:50:14;3.03;;;0.83;;
67861;SDS011;54665;51.462;6.698;2023-02-25T00:52:40;4.93;;;0.90;;
67861;SDS011;54665;51.462;6.698;2023-02-25T00:55:05;8.97;;;1.23;;
67861;SDS011;54665;51.462;6.698;2023-02-25T00:57:31;9.20;;;1.17;;
67861;SDS011;54665;51.462;6.698;2023-02-25T00:59:57;8.97;;;1.00;;
67861;SDS011;54665;51.462;6.698;2023-02-25T01:02:22;9.93;;;0.87;;
67861;SDS011;54665;51.462;6.698;2023-02-25T01:04:47;4.97;;;0.53;;
67861;SDS011;54665;51.462;6.698;2023-02-25T01:07:13;5.43;;;0.90;;
67861;SDS011;54665;51.462;6.698;2023-02-25T01:09:39;5.67;;;0.83;;
67861;SDS011;54665;51.462;6.698;2023-02-25T01:12:04;5.43;;;0.80;;
67861;SDS011;54665;51.462;6.698;2023-02-25T01:14:30;9.17;;;0.97;;
67861;SDS011;54665;51.462;6.698;2023-02-25T01:16:55;5.85;;;0.68;;
67861;SDS011;54665;51.462;6.698;2023-02-25T01:19:24;4.80;;;0.77;;
67861;SDS011;54665;51.462;6.698;2023-02-25T01:21:54;5.28;;;0.77;;
67861;SDS011;54665;51.462;6.698;2023-02-25T01:24:22;7.55;;;1.00;;
67861;SDS011;54665;51.462;6.698;2023-02-25T01:26:54;5.80;;;0.60;;
67861;SDS011;54665;51.462;6.698;2023-02-25T01:29:22;4.30;;;0.50;;
67861;SDS011;54665;51.462;6.698;2023-02-25T01:31:58;5.35;;;0.85;;
67861;SDS011;54665;51.462;6.698;2023-02-25T01:34:25;3.45;;;0.43;;
67861;SDS011;54665;51.462;6.698;2023-02-25T01:36:51;8.10;;;1.05;;
67861;SDS011;54665;51.462;6.698;2023-02-25T01:39:17;5.93;;;0.80;;
67861;SDS011;54665;51.462;6.698;2023-02-25T01:41:44;5.95;;;0.73;;
67861;SDS011;54665;51.462;6.698;2023-02-25T01:44:15;10.35;;;1.15;;
67861;SDS011;54665;51.462;6.698;2023-02-25T01:46:56;2.60;;;0.60;;
67861;SDS011;54665;51.462;6.698;2023-02-25T01:49:26;6.23;;;0.90;;
67861;SDS011;54665;51.462;6.698;2023-02-25T01:54:34;8.52;;;1.20;;
67861;SDS011;54665;51.462;6.698;2023-02-25T01:57:01;6.47;;;0.82;;
67861;SDS011;54665;51.462;6.698;2023-02-25T01:59:29;6.65;;;1.13;;
67861;SDS011;54665;51.462;6.698;2023-02-25T02:01:55;8.60;;;1.30;;
67861;SDS011;54665;51.462;6.698;2023-02-25T02:04:21;11.82;;;1.25;;
67861;SDS011;54665;51.462;6.698;2023-02-25T02:06:48;7.18;;;0.77;;
67861;SDS011;54665;51.462;6.698;2023-02-25T02:09:21;7.35;;;1.38;;
67861;SDS011;54665;51.462;6.698;2023-02-25T02:11:50;6.43;;;0.90;;
67861;SDS011;54665;51.462;6.698;2023-02-25T02:14:19;10.02;;;1.10;;
67861;SDS011;54665;51.462;6.698;2023-02-25T02:19:48;6.47;;;1.10;;
67861;SDS011;54665;51.462;6.698;2023-02-25T02:32:56;4.70;;;0.90;;
67861;SDS011;54665;51.462;6.698;2023-02-25T02:35:34;4.43;;;0.85;;
67861;SDS011;54665;51.462;6.698;2023-02-25T02:41:16;7.82;;;0.90;;
67861;SDS011;54665;51.462;6.698;2023-02-25T02:49:29;12.30;;;1.23;;
67861;SDS011;54665;51.462;6.698;2023-02-25T02:52:20;8.75;;;1.15;;
67861;SDS011;54665;51.462;6.698;2023-02-25T02:54:51;7.30;;;0.95;;
67861;SDS011;54665;51.462;6.698;2023-02-25T02:57:30;8.37;;;1.20;;
67861;SDS011;54665;51.462;6.698;2023-02-25T03:00:02;5.78;;;0.82;;
67861;SDS011;54665;51.462;6.698;2023-02-25T03:02:45;4.55;;;0.52;;
67861;SDS011;54665;51.462;6.698;2023-02-25T03:05:18;5.72;;;1.15;;
67861;SDS011;54665;51.462;6.698;2023-02-25T03:10:38;8.37;;;0.97;;
67861;SDS011;54665;51.462;6.698;2023-02-25T03:13:04;9.32;;;1.20;;
67861;SDS011;54665;51.462;6.698;2023-02-25T03:15:30;7.35;;;1.00;;
67861;SDS011;54665;51.462;6.698;2023-02-25T03:17:58;7.83;;;0.90;;
67861;SDS011;54665;51.462;6.698;2023-02-25T03:20:46;7.18;;;1.00;;
67861;SDS011;54665;51.462;6.698;2023-02-25T03:23:14;8.05;;;1.17;;
67861;SDS011;54665;51.462;6.698;2023-02-25T03:25:44;8.50;;;0.80;;
67861;SDS011;54665;51.462;6.698;2023-02-25T03:28:27;3.35;;;0.60;;
67861;SDS011;54665;51.462;6.698;2023-02-25T03:30:57;6.17;;;1.00;;
67861;SDS011;54665;51.462;6.698;2023-02-25T03:36:08;5.32;;;0.73;;
67861;SDS011;54665;51.462;6.698;2023-02-25T03:38:37;4.78;;;0.52;;
67861;SDS011;54665;51.462;6.698;2023-02-25T03:41:07;9.85;;;1.13;;
67861;SDS011;54665;51.462;6.698;2023-02-25T03:43:43;6.63;;;1.00;;
67861;SDS011;54665;51.462;6.698;2023-02-25T03:46:11;10.27;;;1.20;;
67861;SDS011;54665;51.462;6.698;2023-02-25T03:48:38;7.97;;;0.90;;
67861;SDS011;54665;51.462;6.698;2023-02-25T03:51:08;6.38;;;0.88;;
67861;SDS011;54665;51.462;6.698;2023-02-25T03:53:35;9.90;;;1.10;;
67861;SDS011;54665;51.462;6.698;2023-02-25T03:56:10;4.87;;;0.60;;
67861;SDS011;54665;51.462;6.698;2023-02-25T03:58:39;10.25;;;1.30;;
67861;SDS011;54665;51.462;6.698;2023-02-25T04:01:16;6.40;;;0.60;;
67861;SDS011;54665;51.462;6.698;2023-02-25T04:03:46;5.28;;;0.73;;
67861;SDS011;54665;51.462;6.698;2023-02-25T04:06:13;7.35;;;0.60;;
67861;SDS011;54665;51.462;6.698;2023-02-25T04:08:39;2.77;;;0.53;;
67861;SDS011;54665;51.462;6.698;2023-02-25T04:11:05;6.50;;;0.85;;
67861;SDS011;54665;51.462;6.698;2023-02-25T04:13:31;9.30;;;1.10;;
67861;SDS011;54665;51.462;6.698;2023-02-25T04:15:56;4.43;;;0.60;;
67861;SDS011;54665;51.462;6.698;2023-02-25T04:18:22;8.60;;;1.07;;
67861;SDS011;54665;51.462;6.698;2023-02-25T04:20:49;11.85;;;0.82;;
67861;SDS011;54665;51.462;6.698;2023-02-25T04:23:15;8.60;;;0.77;;
67861;SDS011;54665;51.462;6.698;2023-02-25T04:25:41;5.70;;;0.77;;
67861;SDS011;54665;51.462;6.698;2023-02-25T04:28:07;9.00;;;0.90;;
67861;SDS011;54665;51.462;6.698;2023-02-25T04:30:34;3.13;;;0.45;;
67861;SDS011;54665;51.462;6.698;2023-02-25T04:32:59;7.70;;;0.80;;
67861;SDS011;54665;51.462;6.698;2023-02-25T04:35:25;8.03;;;0.90;;
67861;SDS011;54665;51.462;6.698;2023-02-25T04:37:51;5.23;;;0.70;;
67861;SDS011;54665;51.462;6.698;2023-02-25T04:40:17;5.47;;;0.82;;
67861;SDS011;54665;51.462;6.698;2023-02-25T04:42:45;5.93;;;0.80;;
67861;SDS011;54665;51.462;6.698;2023-02-25T04:45:10;5.38;;;0.50;;
67861;SDS011;54665;51.462;6.698;2023-02-25T04:47:36;6.03;;;0.57;;
67861;SDS011;54665;51.462;6.698;2023-02-25T04:50:02;5.78;;;0.50;;
67861;SDS011;54665;51.462;6.698;2023-02-25T04:52:29;4.67;;;0.60;;
67861;SDS011;54665;51.462;6.698;2023-02-25T04:54:54;10.20;;;1.00;;
67861;SDS011;54665;51.462;6.698;2023-02-25T04:57:20;11.73;;;1.10;;
67861;SDS011;54665;51.462;6.698;2023-02-25T04:59:45;8.67;;;0.83;;
67861;SDS011;54665;51.462;6.698;2023-02-25T05:02:11;5.90;;;0.63;;
67861;SDS011;54665;51.462;6.698;2023-02-25T05:04:37;9.68;;;1.05;;
67861;SDS011;54665;51.462;6.698;2023-02-25T05:07:03;14.15;;;1.08;;
67861;SDS011;54665;51.462;6.698;2023-02-25T05:09:30;7.25;;;0.90;;
67861;SDS011;54665;51.462;6.698;2023-02-25T05:11:55;8.20;;;0.90;;
67861;SDS011;54665;51.462;6.698;2023-02-25T05:14:21;7.27;;;1.00;;
67861;SDS011;54665;51.462;6.698;2023-02-25T05:16:46;7.30;;;0.90;;
67861;SDS011;54665;51.462;6.698;2023-02-25T05:19:15;4.67;;;0.60;;
67861;SDS011;54665;51.462;6.698;2023-02-25T05:21:42;5.82;;;0.85;;
67861;SDS011;54665;51.462;6.698;2023-02-25T05:24:09;6.57;;;0.80;;
67861;SDS011;54665;51.462;6.698;2023-02-25T05:26:36;7.93;;;0.90;;
67861;SDS011;54665;51.462;6.698;2023-02-25T05:29:01;9.00;;;1.10;;
67861;SDS011;54665;51.462;6.698;2023-02-25T05:31:26;10.00;;;0.90;;
67861;SDS011;54665;51.462;6.698;2023-02-25T05:33:52;11.70;;;0.93;;
67861;SDS011;54665;51.462;6.698;2023-02-25T05:36:18;6.37;;;0.83;;
67861;SDS011;54665;51.462;6.698;2023-02-25T05:38:43;6.13;;;1.10;;
67861;SDS011;54665;51.462;6.698;2023-02-25T05:41:10;6.35;;;0.82;;
67861;SDS011;54665;51.462;6.698;2023-02-25T05:43:36;8.00;;;0.55;;
67861;SDS011;54665;51.462;6.698;2023-02-25T05:46:03;17.97;;;1.00;;
67861;SDS011;54665;51.462;6.698;2023-02-25T05:48:33;9.60;;;1.05;;
67861;SDS011;54665;51.462;6.698;2023-02-25T05:51:00;4.95;;;0.73;;
67861;SDS011;54665;51.462;6.698;2023-02-25T05:53:32;5.60;;;0.80;;
67861;SDS011;54665;51.462;6.698;2023-02-25T05:55:58;6.82;;;0.98;;
67861;SDS011;54665;51.462;6.698;2023-02-25T05:58:26;10.30;;;1.02;;
67861;SDS011;54665;51.462;6.698;2023-02-25T06:00:52;6.83;;;0.87;;
67861;SDS011;54665;51.462;6.698;2023-02-25T06:03:18;6.03;;;0.90;;
67861;SDS011;54665;51.462;6.698;2023-02-25T06:05:43;5.73;;;0.93;;
67861;SDS011;54665;51.462;6.698;2023-02-25T06:08:11;12.27;;;1.30;;
67861;SDS011;54665;51.462;6.698;2023-02-25T06:10:38;9.85;;;0.82;;
67861;SDS011;54665;51.462;6.698;2023-02-25T06:13:07;4.18;;;0.77;;
67861;SDS011;54665;51.462;6.698;2023-02-25T06:15:37;8.87;;;0.90;;
67861;SDS011;54665;51.462;6.698;2023-02-25T06:18:04;12.05;;;0.90;;
67861;SDS011;54665;51.462;6.698;2023-02-25T06:20:30;9.73;;;1.00;;
67861;SDS011;54665;51.462;6.698;2023-02-25T06:22:56;5.85;;;0.80;;
67861;SDS011;54665;51.462;6.698;2023-02-25T06:25:22;5.97;;;0.43;;
67861;SDS011;54665;51.462;6.698;2023-02-25T06:27:57;6.68;;;1.20;;
67861;SDS011;54665;51.462;6.698;2023-02-25T06:30:24;6.65;;;1.00;;
67861;SDS011;54665;51.462;6.698;2023-02-25T06:32:50;3.28;;;0.40;;
67861;SDS011;54665;51.462;6.698;2023-02-25T06:35:15;7.77;;;1.03;;
67861;SDS011;54665;51.462;6.698;2023-02-25T06:37:42;7.82;;;0.80;;
67861;SDS011;54665;51.462;6.698;2023-02-25T06:40:07;9.03;;;0.83;;
67861;SDS011;54665;51.462;6.698;2023-02-25T06:42:36;6.43;;;1.02;;
67861;SDS011;54665;51.462;6.698;2023-02-25T06:45:02;10.97;;;1.20;;
67861;SDS011;54665;51.462;6.698;2023-02-25T06:47:28;4.72;;;0.52;;
67861;SDS011;54665;51.462;6.698;2023-02-25T06:49:53;5.87;;;0.73;;
67861;SDS011;54665;51.462;6.698;2023-02-25T06:52:18;9.87;;;1.17;;
67861;SDS011;54665;51.462;6.698;2023-02-25T06:54:44;9.37;;;1.13;;
67861;SDS011;54665;51.462;6.698;2023-02-25T06:57:09;6.40;;;0.83;;
67861;SDS011;54665;51.462;6.698;2023-02-25T06:59:35;12.63;;;1.20;;
67861;SDS011;54665;51.462;6.698;2023-02-25T07:02:01;5.27;;;0.70;;
67861;SDS011;54665;51.462;6.698;2023-02-25T07:04:26;10.73;;;1.25;;
67861;SDS011;54665;51.462;6.698;2023-02-25T07:06:52;8.67;;;1.00;;
67861;SDS011;54665;51.462;6.698;2023-02-25T07:09:17;5.38;;;0.80;;
67861;SDS011;54665;51.462;6.698;2023-02-25T07:11:42;6.40;;;0.80;;
67861;SDS011;54665;51.462;6.698;2023-02-25T07:14:08;4.93;;;0.80;;
67861;SDS011;54665;51.462;6.698;2023-02-25T07:16:34;6.28;;;0.90;;
67861;SDS011;54665;51.462;6.698;2023-02-25T07:18:59;9.63;;;1.30;;
67861;SDS011;54665;51.462;6.698;2023-02-25T07:21:26;7.18;;;1.20;;
67861;SDS011;54665;51.462;6.698;2023-02-25T07:23:54;10.98;;;1.38;;
67861;SDS011;54665;51.462;6.698;2023-02-25T07:26:20;11.17;;;1.37;;
67861;SDS011;54665;51.462;6.698;2023-02-25T07:28:45;12.30;;;0.90;;
67861;SDS011;54665;51.462;6.698;2023-02-25T07:31:16;8.52;;;1.50;;
67861;SDS011;54665;51.462;6.698;2023-02-25T07:33:43;8.43;;;0.80;;
67861;SDS011;54665;51.462;6.698;2023-02-25T07:36:09;7.57;;;1.07;;
67861;SDS011;54665;51.462;6.698;2023-02-25T07:38:36;14.15;;;1.38;;
67861;SDS011;54665;51.462;6.698;2023-02-25T07:41:10;4.90;;;0.95;;
67861;SDS011;54665;51.462;6.698;2023-02-25T07:43:37;6.97;;;0.80;;
67861;SDS011;54665;51.462;6.698;2023-02-25T07:46:04;8.23;;;1.23;;
67861;SDS011;54665;51.462;6.698;2023-02-25T07:48:30;13.25;;;1.45;;
67861;SDS011;54665;51.462;6.698;2023-02-25T07:51:02;11.45;;;1.20;;
67861;SDS011;54665;51.462;6.698;2023-02-25T07:53:29;10.98;;;1.10;;
67861;SDS011;54665;51.462;6.698;2023-02-25T07:55:55;8.60;;;1.00;;
67861;SDS011;54665;51.462;6.698;2023-02-25T07:58:20;7.33;;;1.23;;
67861;SDS011;54665;51.462;6.698;2023-02-25T08:00:46;7.80;;;0.90;;
67861;SDS011;54665;51.462;6.698;2023-02-25T08:03:11;5.33;;;0.83;;
67861;SDS011;54665;51.462;6.698;2023-02-25T08:05:37;9.33;;;1.27;;
67861;SDS011;54665;51.462;6.698;2023-02-25T08:08:03;9.37;;;1.00;;
67861;SDS011;54665;51.462;6.698;2023-02-25T08:10:29;9.43;;;1.33;;
67861;SDS011;54665;51.462;6.698;2023-02-25T08:12:54;7.77;;;0.90;;
67861;SDS011;54665;51.462;6.698;2023-02-25T08:15:20;7.30;;;0.87;;
67861;SDS011;54665;51.462;6.698;2023-02-25T08:17:45;6.53;;;0.93;;
67861;SDS011;54665;51.462;6.698;2023-02-25T08:20:13;6.43;;;0.90;;
67861;SDS011;54665;51.462;6.698;2023-02-25T08:22:38;6.37;;;0.80;;
67861;SDS011;54665;51.462;6.698;2023-02-25T08:25:04;6.07;;;0.60;;
67861;SDS011;54665;51.462;6.698;2023-02-25T08:27:29;6.05;;;0.82;;
67861;SDS011;54665;51.462;6.698;2023-02-25T08:29:56;6.73;;;0.80;;
67861;SDS011;54665;51.462;6.698;2023-02-25T08:32:21;5.50;;;1.05;;
67861;SDS011;54665;51.462;6.698;2023-02-25T08:34:50;11.07;;;1.35;;
67861;SDS011;54665;51.462;6.698;2023-02-25T08:37:16;7.15;;;1.00;;
67861;SDS011;54665;51.462;6.698;2023-02-25T08:39:41;7.90;;;0.80;;
67861;SDS011;54665;51.462;6.698;2023-02-25T08:42:07;17.30;;;1.80;;
67861;SDS011;54665;51.462;6.698;2023-02-25T08:44:35;7.13;;;0.88;;
67861;SDS011;54665;51.462;6.698;2023-02-25T08:47:02;2.92;;;0.70;;
67861;SDS011;54665;51.462;6.698;2023-02-25T08:49:29;10.52;;;1.23;;
67861;SDS011;54665;51.462;6.698;2023-02-25T08:51:55;6.00;;;0.75;;
67861;SDS011;54665;51.462;6.698;2023-02-25T08:54:20;9.47;;;1.03;;
67861;SDS011;54665;51.462;6.698;2023-02-25T08:56:49;9.38;;;0.90;;
67861;SDS011;54665;51.462;6.698;2023-02-25T08:59:15;2.85;;;0.55;;
67861;SDS011;54665;51.462;6.698;2023-02-25T09:01:41;6.30;;;0.93;;
67861;SDS011;54665;51.462;6.698;2023-02-25T09:04:19;8.15;;;0.68;;
67861;SDS011;54665;51.462;6.698;2023-02-25T09:06:47;4.70;;;0.63;;
67861;SDS011;54665;51.462;6.698;2023-02-25T09:09:13;2.85;;;0.50;;
67861;SDS011;54665;51.462;6.698;2023-02-25T09:11:40;3.70;;;0.43;;
67861;SDS011;54665;51.462;6.698;2023-02-25T09:14:05;11.73;;;3.30;;
67861;SDS011;54665;51.462;6.698;2023-02-25T09:16:31;5.05;;;0.90;;
67861;SDS011;54665;51.462;6.698;2023-02-25T09:18:56;9.37;;;0.87;;
67861;SDS011;54665;51.462;6.698;2023-02-25T09:21:22;11.97;;;2.03;;
67861;SDS011;54665;51.462;6.698;2023-02-25T09:23:48;7.35;;;0.90;;
67861;SDS011;54665;51.462;6.698;2023-02-25T09:26:15;5.80;;;0.80;;
67861;SDS011;54665;51.462;6.698;2023-02-25T09:28:41;4.10;;;0.93;;
67861;SDS011;54665;51.462;6.698;2023-02-25T09:31:07;5.70;;;0.95;;
67861;SDS011;54665;51.462;6.698;2023-02-25T09:33:33;14.10;;;2.37;;
67861;SDS011;54665;51.462;6.698;2023-02-25T09:36:13;4.90;;;0.70;;
67861;SDS011;54665;51.462;6.698;2023-02-25T09:38:41;11.63;;;1.17;;
67861;SDS011;54665;51.462;6.698;2023-02-25T09:41:23;6.50;;;1.20;;
67861;SDS011;54665;51.462;6.698;2023-02-25T09:43:57;9.75;;;2.55;;
67861;SDS011;54665;51.462;6.698;2023-02-25T09:46:28;5.38;;;1.20;;
67861;SDS011;54665;51.462;6.698;2023-02-25T09:48:57;23.42;;;7.60;;
67861;SDS011;54665;51.462;6.698;2023-02-25T09:51:30;32.55;;;8.50;;
67861;SDS011;54665;51.462;6.698;2023-02-25T09:54:14;37.40;;;10.60;;
67861;SDS011;54665;51.462;6.698;2023-02-25T09:56:46;23.40;;;6.15;;
67861;SDS011;54665;51.462;6.698;2023-02-25T09:59:15;24.92;;;5.85;;
67861;SDS011;54665;51.462;6.698;2023-02-25T10:01:50;25.50;;;7.95;;
67861;SDS011;54665;51.462;6.698;2023-02-25T10:07:11;14.43;;;4.73;;
67861;SDS011;54665;51.462;6.698;2023-02-25T10:09:57;16.35;;;4.57;;
67861;SDS011;54665;51.462;6.698;2023-02-25T10:12:38;11.75;;;3.30;;
67861;SDS011;54665;51.462;6.698;2023-02-25T10:26:36;10.55;;;3.45;;
67861;SDS011;54665;51.462;6.698;2023-02-25T10:29:11;6.15;;;1.45;;
67861;SDS011;54665;51.462;6.698;2023-02-25T10:31:48;5.15;;;0.82;;
67861;SDS011;54665;51.462;6.698;2023-02-25T10:36:46;6.00;;;0.93;;
67861;SDS011;54665;51.462;6.698;2023-02-25T10:39:17;2.85;;;0.95;;
67861;SDS011;54665;51.462;6.698;2023-02-25T10:41:43;6.77;;;1.20;;
67861;SDS011;54665;51.462;6.698;2023-02-25T10:44:09;4.20;;;0.77;;
67861;SDS011;54665;51.462;6.698;2023-02-25T10:46:37;5.82;;;1.42;;
67861;SDS011;54665;51.462;6.698;2023-02-25T10:49:16;3.92;;;0.98;;
67861;SDS011;54665;51.462;6.698;2023-02-25T10:52:01;4.57;;;0.50;;
67861;SDS011;54665;51.462;6.698;2023-02-25T10:54:32;5.85;;;1.35;;
67861;SDS011;54665;51.462;6.698;2023-02-25T10:57:00;5.60;;;0.80;;
67861;SDS011;54665;51.462;6.698;2023-02-25T10:59:36;2.75;;;0.80;;
67861;SDS011;54665;51.462;6.698;2023-02-25T11:02:22;2.80;;;0.70;;
67861;SDS011;54665;51.462;6.698;2023-02-25T11:04:50;4.18;;;0.77;;
67861;SDS011;54665;51.462;6.698;2023-02-25T11:10:16;2.50;;;0.60;;
67861;SDS011;54665;51.462;6.698;2023-02-25T11:15:16;4.45;;;0.88;;
67861;SDS011;54665;51.462;6.698;2023-02-25T11:18:01;7.18;;;1.25;;
67861;SDS011;54665;51.462;6.698;2023-02-25T11:20:30;5.38;;;0.68;;
67861;SDS011;54665;51.462;6.698;2023-02-25T11:22:57;4.20;;;0.90;;
67861;SDS011;54665;51.462;6.698;2023-02-25T11:25:31;4.28;;;0.63;;
67861;SDS011;54665;51.462;6.698;2023-02-25T11:28:01;3.22;;;0.70;;
67861;SDS011;54665;51.462;6.698;2023-02-25T11:30:31;2.45;;;0.70;;
67861;SDS011;54665;51.462;6.698;2023-02-25T11:33:03;2.73;;;0.43;;
67861;SDS011;54665;51.462;6.698;2023-02-25T11:35:34;2.17;;;0.40;;
67861;SDS011;54665;51.462;6.698;2023-02-25T11:38:12;2.70;;;0.80;;
67861;SDS011;54665;51.462;6.698;2023-02-25T11:41:01;5.32;;;0.68;;
67861;SDS011;54665;51.462;6.698;2023-02-25T11:43:34;3.90;;;0.80;;
67861;SDS011;54665;51.462;6.698;2023-02-25T11:46:07;2.20;;;0.50;;
67861;SDS011;54665;51.462;6.698;2023-02-25T11:49:46;3.15;;;0.70;;
67861;SDS011;54665;51.462;6.698;2023-02-25T11:52:02;3.75;;;0.57;;
67861;SDS011;54665;51.462;6.698;2023-02-25T11:54:52;1.50;;;0.35;;
67861;SDS011;54665;51.462;6.698;2023-02-25T11:57:42;2.65;;;0.50;;
67861;SDS011;54665;51.462;6.698;2023-02-25T12:02:53;7.43;;;0.80;;
67861;SDS011;54665;51.462;6.698;2023-02-25T12:08:08;3.15;;;0.50;;
67861;SDS011;54665;51.462;6.698;2023-02-25T12:10:59;4.80;;;0.80;;
67861;SDS011;54665;51.462;6.698;2023-02-25T12:17:08;5.22;;;0.52;;
67861;SDS011;54665;51.462;6.698;2023-02-25T12:33:23;9.48;;;2.63;;
67861;SDS011;54665;51.462;6.698;2023-02-25T12:36:04;7.18;;;2.22;;
67861;SDS011;54665;51.462;6.698;2023-02-25T12:55:46;11.80;;;3.63;;
67861;SDS011;54665;51.462;6.698;2023-02-25T13:04:06;3.65;;;1.05;;
67861;SDS011;54665;51.462;6.698;2023-02-25T13:12:10;6.07;;;1.70;;
67861;SDS011;54665;51.462;6.698;2023-02-25T13:17:50;4.28;;;1.15;;
67861;SDS011;54665;51.462;6.698;2023-02-25T13:23:29;3.60;;;1.10;;
67861;SDS011;54665;51.462;6.698;2023-02-25T13:26:09;6.27;;;1.07;;
67861;SDS011;54665;51.462;6.698;2023-02-25T13:29:33;7.32;;;1.42;;
67861;SDS011;54665;51.462;6.698;2023-02-25T13:35:09;2.35;;;0.60;;
67861;SDS011;54665;51.462;6.698;2023-02-25T13:37:39;2.03;;;0.50;;
67861;SDS011;54665;51.462;6.698;2023-02-25T13:49:34;2.72;;;0.40;;
67861;SDS011;54665;51.462;6.698;2023-02-25T13:58:18;3.17;;;1.15;;
67861;SDS011;54665;51.462;6.698;2023-02-25T14:01:11;6.72;;;2.40;;
67861;SDS011;54665;51.462;6.698;2023-02-25T14:07:18;4.43;;;0.82;;
67861;SDS011;54665;51.462;6.698;2023-02-25T14:19:11;2.97;;;0.35;;
67861;SDS011;54665;51.462;6.698;2023-02-25T14:29:54;1.42;;;0.32;;
67861;SDS011;54665;51.462;6.698;2023-02-25T14:32:59;2.03;;;0.22;;
67861;SDS011;54665;51.462;6.698;2023-02-25T14:44:24;2.35;;;0.50;;
67861;SDS011;54665;51.462;6.698;2023-02-25T14:47:09;2.13;;;0.30;;
67861;SDS011;54665;51.462;6.698;2023-02-25T14:49:49;3.50;;;0.52;;
67861;SDS011;54665;51.462;6.698;2023-02-25T14:52:25;4.30;;;1.50;;
67861;SDS011;54665;51.462;6.698;2023-02-25T15:01:16;4.82;;;1.08;;
67861;SDS011;54665;51.462;6.698;2023-02-25T15:12:31;5.18;;;0.80;;
67861;SDS011;54665;51.462;6.698;2023-02-25T15:18:22;1.25;;;0.30;;
67861;SDS011;54665;51.462;6.698;2023-02-25T15:20:52;1.60;;;0.40;;
67861;SDS011;54665;51.462;6.698;2023-02-25T15:23:19;2.92;;;0.50;;
67861;SDS011;54665;51.462;6.698;2023-02-25T15:25:46;1.25;;;0.28;;
67861;SDS011;54665;51.462;6.698;2023-02-25T15:38:51;2.95;;;0.75;;
67861;SDS011;54665;51.462;6.698;2023-02-25T15:41:29;7.93;;;1.58;;
67861;SDS011;54665;51.462;6.698;2023-02-25T15:46:41;3.25;;;0.88;;
67861;SDS011;54665;51.462;6.698;2023-02-25T15:57:00;2.90;;;0.82;;
67861;SDS011;54665;51.462;6.698;2023-02-25T16:02:30;3.40;;;0.90;;
67861;SDS011;54665;51.462;6.698;2023-02-25T16:04:57;2.00;;;0.50;;
67861;SDS011;54665;51.462;6.698;2023-02-25T16:07:29;5.47;;;0.60;;
67861;SDS011;54665;51.462;6.698;2023-02-25T16:09:59;1.77;;;0.50;;
67861;SDS011;54665;51.462;6.698;2023-02-25T16:12:30;2.72;;;0.30;;
67861;SDS011;54665;51.462;6.698;2023-02-25T16:14:57;2.53;;;0.32;;
67861;SDS011;54665;51.462;6.698;2023-02-25T16:17:33;1.40;;;0.20;;
67861;SDS011;54665;51.462;6.698;2023-02-25T16:20:15;2.10;;;0.40;;
67861;SDS011;54665;51.462;6.698;2023-02-25T16:22:43;3.17;;;0.50;;
67861;SDS011;54665;51.462;6.698;2023-02-25T16:25:14;3.33;;;0.52;;
67861;SDS011;54665;51.462;6.698;2023-02-25T16:27:47;0.63;;;0.30;;
67861;SDS011;54665;51.462;6.698;2023-02-25T16:30:24;1.50;;;0.17;;
67861;SDS011;54665;51.462;6.698;2023-02-25T16:36:02;2.88;;;0.50;;
67861;SDS011;54665;51.462;6.698;2023-02-25T16:41:34;0.70;;;0.20;;
67861;SDS011;54665;51.462;6.698;2023-02-25T16:44:00;2.10;;;0.50;;
67861;SDS011;54665;51.462;6.698;2023-02-25T16:46:27;4.03;;;0.50;;
67861;SDS011;54665;51.462;6.698;2023-02-25T16:48:59;3.15;;;0.60;;
67861;SDS011;54665;51.462;6.698;2023-02-25T16:51:39;2.65;;;0.50;;
67861;SDS011;54665;51.462;6.698;2023-02-25T16:56:34;2.90;;;0.97;;
67861;SDS011;54665;51.462;6.698;2023-02-25T17:01:39;2.83;;;0.75;;
67861;SDS011;54665;51.462;6.698;2023-02-25T17:04:19;8.27;;;2.45;;
67861;SDS011;54665;51.462;6.698;2023-02-25T17:09:34;5.07;;;1.73;;
67861;SDS011;54665;51.462;6.698;2023-02-25T17:12:00;3.35;;;0.50;;
67861;SDS011;54665;51.462;6.698;2023-02-25T17:14:27;6.45;;;1.90;;
67861;SDS011;54665;51.462;6.698;2023-02-25T17:16:55;4.47;;;0.40;;
67861;SDS011;54665;51.462;6.698;2023-02-25T17:19:21;2.85;;;0.43;;
67861;SDS011;54665;51.462;6.698;2023-02-25T17:21:55;2.25;;;0.40;;
67861;SDS011;54665;51.462;6.698;2023-02-25T17:24:29;3.50;;;0.60;;
67861;SDS011;54665;51.462;6.698;2023-02-25T17:26:56;1.50;;;0.50;;
67861;SDS011;54665;51.462;6.698;2023-02-25T17:29:22;8.52;;;2.65;;
67861;SDS011;54665;51.462;6.698;2023-02-25T17:31:58;4.45;;;1.38;;
67861;SDS011;54665;51.462;6.698;2023-02-25T17:34:30;3.37;;;1.33;;
67861;SDS011;54665;51.462;6.698;2023-02-25T17:36:59;1.65;;;0.38;;
67861;SDS011;54665;51.462;6.698;2023-02-25T17:39:28;4.85;;;0.52;;
67861;SDS011;54665;51.462;6.698;2023-02-25T17:41:54;8.13;;;2.20;;
67861;SDS011;54665;51.462;6.698;2023-02-25T17:47:18;4.85;;;0.88;;
67861;SDS011;54665;51.462;6.698;2023-02-25T17:49:47;1.35;;;0.30;;
67861;SDS011;54665;51.462;6.698;2023-02-25T17:52:18;3.37;;;0.70;;
67861;SDS011;54665;51.462;6.698;2023-02-25T17:54:48;4.45;;;1.00;;
67861;SDS011;54665;51.462;6.698;2023-02-25T17:57:20;6.80;;;1.77;;
67861;SDS011;54665;51.462;6.698;2023-02-25T17:59:54;4.25;;;0.60;;
67861;SDS011;54665;51.462;6.698;2023-02-25T18:02:31;8.07;;;2.10;;
67861;SDS011;54665;51.462;6.698;2023-02-25T18:10:45;3.50;;;0.50;;
67861;SDS011;54665;51.462;6.698;2023-02-25T18:13:26;2.10;;;0.57;;
67861;SDS011;54665;51.462;6.698;2023-02-25T18:16:09;6.55;;;0.70;;
67861;SDS011;54665;51.462;6.698;2023-02-25T18:18:40;2.23;;;0.47;;
67861;SDS011;54665;51.462;6.698;2023-02-25T18:21:06;4.20;;;0.77;;
67861;SDS011;54665;51.462;6.698;2023-02-25T18:23:34;5.37;;;1.50;;
67861;SDS011;54665;51.462;6.698;2023-02-25T18:28:37;7.65;;;1.58;;
67861;SDS011;54665;51.462;6.698;2023-02-25T18:31:03;4.53;;;1.23;;
67861;SDS011;54665;51.462;6.698;2023-02-25T18:33:28;5.63;;;1.60;;
67861;SDS011;54665;51.462;6.698;2023-02-25T18:35:54;5.50;;;1.10;;
67861;SDS011;54665;51.462;6.698;2023-02-25T18:38:21;7.83;;;1.33;;
67861;SDS011;54665;51.462;6.698;2023-02-25T18:40:48;6.15;;;1.23;;
67861;SDS011;54665;51.462;6.698;2023-02-25T18:43:20;2.72;;;1.05;;
67861;SDS011;54665;51.462;6.698;2023-02-25T18:45:47;5.63;;;1.05;;
67861;SDS011;54665;51.462;6.698;2023-02-25T18:48:13;2.27;;;0.67;;